CheckWX is a tool to help pilots better visualize weather data.  It is not intended as a substitute for an official pre-flight weather briefing.

06:45:52 UTC

EGPO METAR
Stornoway Airport
Stornoway, United Kingdom
Current

26 mins ago

EGPO 210620Z 28004KT 9999 FEW014 08/07 Q1018
Observed
May-21 @ 06:20 UTC
Wind
  • 280° at 4 KTS
Visibility
10,000+ meters
Flight Rules
VFR
Cloud Levels
  • Few at 1,400' AGL
Temperature
C / 46°F
Dewpoint
C / 45°F
Humidity
93%
Altimeter
30.06" Hg
Pressure
1017.92 hPa
Previous

56 mins ago

EGPO 210550Z 28005KT 9999 FEW014 08/07 Q1018
Observed
May-21 @ 05:50 UTC
Wind
  • 280° at 5 KTS
Visibility
10,000+ meters
Flight Rules
VFR
Cloud Levels
  • Few at 1,400' AGL
Temperature
C / 46°F
Dewpoint
C / 45°F
Humidity
93%
Altimeter
30.06" Hg
Pressure
1017.92 hPa
Previous

1 hour ago

EGPO 210520Z 29005KT 9999 FEW012 05/04 Q1018
Observed
May-21 @ 05:20 UTC
Wind
  • 290° at 5 KTS
Visibility
10,000+ meters
Flight Rules
VFR
Cloud Levels
  • Few at 1,200' AGL
Temperature
C / 41°F
Dewpoint
C / 39°F
Humidity
93%
Altimeter
30.06" Hg
Pressure
1017.92 hPa